Time;durP1;ratioP1;P1;durP2;ratioP2;P2;SDS_P1;SDS_P2;PMS_P1;PMS_P2;Temp;Humidity;BMP_temperature;BMP_pressure;BME280_temperature;BME280_humidity;BME280_pressure;Samples;Min_cycle;Max_cycle;Signal;HPM_P1;HPM_P2
2022/09/14 00:02:25;;;;;;;9.35;2.13;;;;;;;15.89;100.00;101077.03;7380288;19;20090;-72
2022/09/14 00:05:39;;;;;;;8.55;2.28;;;;;;;15.88;100.00;101074.41;7380075;19;20039;-72
2022/09/14 00:08:29;;;;;;;3.50;2.10;;;;;;;15.86;100.00;101071.75;7378810;19;20011;-72
2022/09/14 00:11:21;;;;;;;3.25;1.80;;;;;;;15.87;100.00;101060.28;7382896;19;20018;-72
2022/09/14 00:14:16;;;;;;;6.32;2.00;;;;;;;15.86;100.00;101065.59;7378616;19;20010;-73
2022/09/14 00:17:20;;;;;;;4.88;2.10;;;;;;;15.84;100.00;101062.06;7382093;19;20015;-73
2022/09/14 00:20:16;;;;;;;6.00;2.10;;;;;;;15.82;100.00;101048.84;7379164;19;20125;-72
2022/09/14 00:27:05;;;;;;;9.88;1.90;;;;;;;15.79;100.00;101053.28;7381553;19;20039;-74
2022/09/14 00:30:04;;;;;;;6.10;2.15;;;;;;;15.80;100.00;101050.63;7383017;19;20029;-73
2022/09/14 00:36:06;;;;;;;5.50;2.20;;;;;;;15.82;100.00;101046.22;7374435;19;20022;-77
2022/09/14 00:38:37;;;;;;;6.85;1.88;;;;;;;15.79;100.00;101040.94;7381499;19;20022;-77
2022/09/14 00:41:10;;;;;;;2.70;1.85;;;;;;;15.75;100.00;101047.13;7381432;19;20358;-79
2022/09/14 00:44:01;;;;;;;4.35;2.33;;;;;;;15.76;100.00;101042.72;7379059;19;20122;-79
2022/09/14 00:46:32;;;;;;;6.68;2.10;;;;;;;15.75;100.00;101041.84;7380958;19;20006;-76
2022/09/14 00:49:05;;;;;;;4.60;2.30;;;;;;;15.72;100.00;101041.84;7382808;19;20018;-78
2022/09/14 00:51:38;;;;;;;5.30;2.10;;;;;;;15.72;100.00;101026.00;7381820;19;20021;-77
2022/09/14 00:54:08;;;;;;;7.53;2.30;;;;;;;15.74;100.00;101029.50;7377227;19;20022;-77
2022/09/14 00:56:38;;;;;;;10.68;2.40;;;;;;;15.71;100.00;101018.94;7370999;19;20021;-77
2022/09/14 00:59:17;;;;;;;4.72;2.10;;;;;;;15.72;100.00;101010.13;7380336;19;20015;-77
2022/09/14 01:01:48;;;;;;;5.57;1.90;;;;;;;15.74;100.00;101011.00;7378452;19;20011;-77
2022/09/14 01:04:17;;;;;;;6.75;2.25;;;;;;;15.74;100.00;101008.34;7381162;19;20010;-77
2022/09/14 01:06:57;;;;;;;4.40;2.00;;;;;;;15.73;100.00;100996.03;7378496;19;20007;-77
2022/09/14 01:09:34;;;;;;;5.70;2.55;;;;;;;15.71;100.00;100997.78;7379549;19;20014;-77
2022/09/14 01:12:18;;;;;;;3.10;2.03;;;;;;;15.73;100.00;100996.03;7382415;19;20010;-77
2022/09/14 01:14:59;;;;;;;4.18;2.13;;;;;;;15.72;100.00;100983.69;7378205;19;20400;-77
2022/09/14 01:17:39;;;;;;;3.70;2.30;;;;;;;15.70;100.00;100988.09;7380256;19;20014;-77
2022/09/14 01:20:21;;;;;;;5.82;2.35;;;;;;;15.71;100.00;100992.50;7379424;19;20018;-77
2022/09/14 01:23:02;;;;;;;6.72;2.40;;;;;;;15.70;100.00;100990.75;7379873;19;20517;-77
2022/09/14 01:25:59;;;;;;;3.67;2.28;;;;;;;15.67;100.00;100985.47;7378851;19;20029;-77
2022/09/14 01:28:37;;;;;;;7.10;2.28;;;;;;;15.67;100.00;100977.53;7379259;19;20018;-77
2022/09/14 01:31:14;;;;;;;4.20;2.20;;;;;;;15.67;100.00;100980.19;7379577;19;20539;-77
2022/09/14 01:33:51;;;;;;;3.90;2.30;;;;;;;15.63;100.00;100981.09;7378491;19;20006;-77
2022/09/14 01:36:23;;;;;;;8.13;2.28;;;;;;;15.63;100.00;100978.44;7380000;19;20022;-77
2022/09/14 01:38:56;;;;;;;6.65;2.38;;;;;;;15.59;100.00;100968.81;7379875;19;20025;-77
2022/09/14 01:41:30;;;;;;;4.13;1.85;;;;;;;15.61;100.00;100967.00;7381059;19;20687;-76
2022/09/14 01:44:10;;;;;;;5.75;2.78;;;;;;;15.63;100.00;100979.31;7376980;19;20435;-76
2022/09/14 01:46:44;;;;;;;5.18;1.98;;;;;;;15.59;100.00;100972.31;7378463;19;20006;-76
2022/09/14 01:49:19;;;;;;;4.18;2.20;;;;;;;15.59;100.00;100968.81;7380039;19;20018;-76
2022/09/14 01:51:50;;;;;;;8.27;2.60;;;;;;;15.54;100.00;100962.63;7376437;19;20011;-79
2022/09/14 01:54:27;;;;;;;11.55;2.38;;;;;;;15.57;100.00;100965.28;7374186;19;20020;-79
2022/09/14 01:57:00;;;;;;;8.20;2.80;;;;;;;15.57;100.00;100962.66;7378007;19;20068;-76
2022/09/14 01:59:33;;;;;;;;;;;;;;;15.55;100.00;100957.34;7378789;19;20002;-76
2022/09/14 02:02:07;;;;;;;3.83;2.10;;;;;;;15.54;100.00;100962.63;7380398;19;19921;-78
2022/09/14 02:04:43;;;;;;;5.25;2.20;;;;;;;15.56;100.00;100958.22;7381249;19;20495;-78
2022/09/14 02:07:13;;;;;;;5.75;2.03;;;;;;;15.56;100.00;100955.56;7378870;19;20354;-78
2022/09/14 02:09:43;;;;;;;5.85;2.30;;;;;;;15.54;100.00;100957.34;7378493;19;20086;-78
2022/09/14 02:12:13;;;;;;;7.55;2.33;;;;;;;15.52;100.00;100949.41;7379372;19;20010;-78
2022/09/14 02:14:47;;;;;;;3.90;2.13;;;;;;;15.51;100.00;100952.94;7374978;19;20015;-78
2022/09/14 02:17:17;;;;;;;6.15;2.60;;;;;;;15.51;100.00;100952.06;7378267;19;20049;-78
2022/09/14 02:19:53;;;;;;;4.80;2.20;;;;;;;15.52;100.00;100954.72;7380964;19;20017;-78
2022/09/14 02:22:23;;;;;;;6.97;2.50;;;;;;;15.51;100.00;100952.94;7378614;19;20412;-78
2022/09/14 02:24:54;;;;;;;6.65;2.55;;;;;;;15.51;100.00;100946.78;7377058;19;20021;-78
2022/09/14 02:27:23;;;;;;;6.97;2.10;;;;;;;15.51;100.00;100952.06;7379609;19;20014;-76
2022/09/14 02:29:57;;;;;;;7.85;2.47;;;;;;;15.51;100.00;100949.44;7378459;19;20017;-78
2022/09/14 02:32:33;;;;;;;7.30;2.45;;;;;;;15.51;100.00;100941.50;7378524;19;20452;-76
2022/09/14 02:35:34;;;;;;;;;;;;;;;;;;;;;
2022/09/14 02:38:44;;;;;;;5.93;2.10;;;;;;;15.49;100.00;100930.06;7375717;19;20014;-71
2022/09/14 02:41:38;;;;;;;5.47;2.38;;;;;;;15.47;100.00;100923.91;7375815;19;20038;-71
2022/09/14 02:44:32;;;;;;;4.75;2.20;;;;;;;15.44;100.00;100923.91;7378611;19;20049;-73
2022/09/14 02:47:16;;;;;;;7.22;2.22;;;;;;;15.42;100.00;100909.81;7378352;19;20015;-74
2022/09/14 02:50:06;;;;;;;7.55;2.58;;;;;;;15.40;100.00;100904.56;7372479;19;20503;-71
2022/09/14 02:53:00;;;;;;;6.40;2.30;;;;;;;15.41;100.00;100906.31;7373982;19;20006;-77
2022/09/14 02:55:36;;;;;;;4.30;1.90;;;;;;;15.36;100.00;100906.34;7376706;19;20544;-79
2022/09/14 02:58:08;;;;;;;7.47;2.05;;;;;;;15.34;100.00;100913.38;7375890;19;20011;-77
2022/09/14 03:00:41;;;;;;;4.88;2.45;;;;;;;15.37;100.00;100908.09;7383206;19;20015;-77
2022/09/14 03:03:15;;;;;;;8.20;2.60;;;;;;;15.34;100.00;100902.81;7384909;19;20085;-76
2022/09/14 03:05:46;;;;;;;14.20;2.60;;;;;;;15.32;100.00;100904.59;7386499;19;20010;-76
2022/09/14 03:08:16;;;;;;;5.55;1.98;;;;;;;15.33;100.00;100901.06;7385076;19;20044;-76
2022/09/14 03:10:46;;;;;;;4.88;2.00;;;;;;;15.32;100.00;100896.66;7382134;19;20010;-78
2022/09/14 03:13:16;;;;;;;6.65;2.60;;;;;;;15.33;100.00;100894.91;7383135;19;20356;-78
2022/09/14 03:15:45;;;;;;;6.88;2.53;;;;;;;15.33;100.00;100901.06;7382020;19;20580;-77
2022/09/14 03:18:18;;;;;;;7.07;2.40;;;;;;;15.33;100.00;100901.06;7384729;19;20014;-76
2022/09/14 03:20:48;;;;;;;8.73;2.67;;;;;;;15.29;100.00;100888.75;7383277;19;20485;-76
2022/09/14 03:23:18;;;;;;;5.90;2.88;;;;;;;15.24;100.00;100892.31;7384528;19;20028;-76
2022/09/14 03:25:47;;;;;;;10.85;2.20;;;;;;;15.23;100.00;100880.84;7385050;19;20578;-76
2022/09/14 03:28:17;;;;;;;5.47;2.22;;;;;;;15.21;100.00;100874.69;7382240;19;20342;-76
2022/09/14 03:30:47;;;;;;;5.75;2.17;;;;;;;15.24;100.00;100879.97;7384629;19;20007;-76
2022/09/14 03:33:19;;;;;;;8.30;2.80;;;;;;;15.23;100.00;100867.66;7382308;19;20023;-76
2022/09/14 03:35:48;;;;;;;7.45;2.35;;;;;;;15.22;100.00;100865.91;7386344;19;20043;-76
2022/09/14 03:38:18;;;;;;;2.65;2.10;;;;;;;15.24;100.00;100872.03;7382660;19;20015;-76
2022/09/14 03:40:48;;;;;;;5.15;2.10;;;;;;;15.24;100.00;100874.69;7385036;19;20010;-77
2022/09/14 03:43:17;;;;;;;7.28;2.28;;;;;;;15.25;100.00;100865.88;7378787;19;20451;-76
2022/09/14 03:45:47;;;;;;;4.53;2.13;;;;;;;15.25;100.00;100865.88;7380659;19;20457;-77
2022/09/14 03:48:19;;;;;;;9.32;2.50;;;;;;;15.24;100.00;100861.47;7379719;19;20019;-76
2022/09/14 03:50:49;;;;;;;6.93;2.25;;;;;;;15.21;100.00;100858.84;7383493;19;20034;-76
2022/09/14 03:53:18;;;;;;;4.20;2.13;;;;;;;15.21;100.00;100857.97;7380155;19;20026;-77
2022/09/14 03:55:48;;;;;;;5.28;1.80;;;;;;;15.17;100.00;100851.81;7382237;19;20010;-76
2022/09/14 03:58:18;;;;;;;3.38;2.20;;;;;;;15.17;100.00;100857.13;7383367;19;20018;-76
2022/09/14 04:00:47;;;;;;;7.93;2.28;;;;;;;15.17;100.00;100858.88;7381185;19;20018;-79
2022/09/14 04:03:20;;;;;;;5.40;2.20;;;;;;;15.15;100.00;100869.44;7385072;19;20042;-79
2022/09/14 04:05:56;;;;;;;5.28;1.98;;;;;;;15.14;100.00;100870.34;7384193;19;20003;-76
2022/09/14 04:08:32;;;;;;;3.70;1.92;;;;;;;15.13;100.00;100873.88;7384444;19;20233;-72
2022/09/14 04:11:18;;;;;;;4.28;1.98;;;;;;;15.15;100.00;100879.13;7381511;19;20010;-74
2022/09/14 04:13:51;;;;;;;8.30;2.00;;;;;;;15.12;100.00;100874.75;7381457;19;20057;-72
2022/09/14 04:16:24;;;;;;;5.53;2.20;;;;;;;15.13;100.00;100879.16;7383784;19;20010;-72
2022/09/14 04:18:57;;;;;;;4.53;2.55;;;;;;;15.14;100.00;100875.63;7382941;19;20471;-72
2022/09/14 04:21:33;;;;;;;6.30;2.20;;;;;;;15.14;100.00;100877.38;7382261;19;20019;-72
2022/09/14 04:24:04;;;;;;;5.53;2.22;;;;;;;15.12;100.00;100876.50;7379978;19;20015;-72
2022/09/14 04:26:53;;;;;;;9.02;2.90;;;;;;;15.13;100.00;100881.78;7379423;19;20011;-72
2022/09/14 04:29:29;;;;;;;4.85;2.20;;;;;;;15.11;100.00;100875.63;7381105;19;20094;-72
2022/09/14 04:32:01;;;;;;;6.30;3.08;;;;;;;15.11;100.00;100867.72;7378870;19;20046;-72
2022/09/14 04:34:37;;;;;;;5.35;2.47;;;;;;;15.12;100.00;100858.91;7381312;19;20019;-73
2022/09/14 04:37:17;;;;;;;6.95;2.55;;;;;;;15.14;100.00;100872.97;7380432;19;20014;-72
2022/09/14 04:39:52;;;;;;;6.45;3.25;;;;;;;15.13;100.00;100865.06;7379819;19;20102;-71
2022/09/14 04:42:23;;;;;;;;;;;;;;;15.15;100.00;100865.94;7380091;19;20013;-72
2022/09/14 04:44:55;;;;;;;8.18;3.15;;;;;;;15.14;100.00;100866.81;7381353;19;19914;-72
2022/09/14 04:47:25;;;;;;;5.53;3.05;;;;;;;15.17;100.00;100872.97;7380990;19;20017;-72
2022/09/14 04:49:58;;;;;;;9.70;2.80;;;;;;;15.19;100.00;100867.66;7380198;19;20010;-72
2022/09/14 04:52:30;;;;;;;3.73;2.10;;;;;;;15.17;100.00;100866.81;7379183;19;20149;-72
2022/09/14 04:55:00;;;;;;;5.30;2.50;;;;;;;15.17;100.00;100864.16;7377213;19;20013;-72
2022/09/14 04:57:33;;;;;;;6.63;2.20;;;;;;;15.19;100.00;100857.97;7379171;19;20450;-72
2022/09/14 05:00:04;;;;;;;7.32;2.53;;;;;;;15.14;100.00;100849.19;7382345;19;20011;-72
2022/09/14 05:02:41;;;;;;;8.02;2.30;;;;;;;15.12;100.00;100856.25;7379518;19;20372;-72
2022/09/14 05:05:16;;;;;;;5.25;2.40;;;;;;;15.09;100.00;100851.00;7382544;19;20040;-72
2022/09/14 05:07:46;;;;;;;4.13;2.30;;;;;;;15.06;100.00;100853.66;7381373;19;20022;-73
2022/09/14 05:10:22;;;;;;;8.07;2.63;;;;;;;15.09;100.00;100851.00;7382878;19;20002;-73
2022/09/14 05:13:00;;;;;;;8.90;2.95;;;;;;;15.07;100.00;100850.13;7377904;19;20011;-72
2022/09/14 05:15:35;;;;;;;6.85;2.67;;;;;;;15.04;100.00;100845.72;7375512;19;20014;-73
2022/09/14 05:18:21;;;;;;;3.70;2.38;;;;;;;15.03;100.00;100853.66;7378027;19;20588;-73
2022/09/14 05:21:07;;;;;;;6.70;2.55;;;;;;;15.00;100.00;100856.31;7376759;19;20020;-73
2022/09/14 05:23:47;;;;;;;6.40;3.13;;;;;;;14.99;100.00;100857.19;7376160;19;20011;-72
2022/09/14 05:26:17;;;;;;;6.50;3.30;;;;;;;15.01;100.00;100850.16;7383116;19;20018;-76
2022/09/14 05:28:52;;;;;;;7.80;2.60;;;;;;;15.01;100.00;100861.59;7379114;19;20496;-77
2022/09/14 05:31:22;;;;;;;4.45;2.40;;;;;;;15.01;100.00;100860.72;7381365;19;20014;-77
2022/09/14 05:33:53;;;;;;;6.72;2.38;;;;;;;15.01;100.00;100864.22;7379979;19;20028;-76
2022/09/14 05:36:39;;;;;;;6.90;2.47;;;;;;;14.99;100.00;100851.91;7378195;19;20039;-73
2022/09/14 05:39:21;;;;;;;8.13;2.58;;;;;;;14.99;100.00;100852.78;7376975;19;20545;-73
2022/09/14 05:41:58;;;;;;;7.90;3.38;;;;;;;15.00;100.00;100859.84;7381093;19;20007;-73
2022/09/14 05:47:18;;;;;;;6.32;2.92;;;;;;;15.03;100.00;100861.59;7379036;19;20010;-72
2022/09/14 05:49:59;;;;;;;6.15;2.55;;;;;;;15.02;100.00;100859.81;7378830;19;20010;-73
2022/09/14 05:52:41;;;;;;;10.60;3.40;;;;;;;15.03;100.00;100851.00;7375321;19;20303;-74
2022/09/14 05:55:13;;;;;;;6.30;2.65;;;;;;;15.02;100.00;100847.50;7381439;19;20106;-73
2022/09/14 05:57:55;;;;;;;4.90;2.70;;;;;;;15.01;100.00;100853.66;7378112;19;20042;-72
2022/09/14 06:00:28;;;;;;;5.57;2.42;;;;;;;14.99;100.00;100850.16;7373597;19;20436;-72
2022/09/14 06:03:09;;;;;;;9.13;2.80;;;;;;;14.96;100.00;100867.78;7375082;19;20018;-72
2022/09/14 06:05:41;;;;;;;6.65;2.60;;;;;;;14.94;100.00;100864.25;7377830;19;20105;-73
2022/09/14 06:08:22;;;;;;;7.00;2.40;;;;;;;14.92;100.00;100861.63;7376276;19;20024;-72
2022/09/14 06:10:59;;;;;;;3.30;2.35;;;;;;;14.90;100.00;100860.75;7378448;19;20018;-73
2022/09/14 06:13:32;;;;;;;6.40;2.90;;;;;;;14.88;100.00;100857.25;7379516;19;20323;-73
2022/09/14 06:16:36;;;;;;;6.28;2.70;;;;;;;14.85;100.00;100848.47;7374282;19;20014;-73
2022/09/14 06:19:07;;;;;;;5.53;2.80;;;;;;;14.86;100.00;100847.56;7378812;19;20071;-72
2022/09/14 06:21:40;;;;;;;7.10;2.60;;;;;;;14.90;100.00;100851.97;7379102;19;20045;-76
2022/09/14 06:24:14;;;;;;;6.80;2.83;;;;;;;14.92;100.00;100850.19;7378548;19;20014;-76
2022/09/14 06:26:43;;;;;;;7.25;2.33;;;;;;;14.92;100.00;100834.34;7381467;19;20010;-77
2022/09/14 06:29:13;;;;;;;7.75;2.53;;;;;;;14.93;100.00;100836.97;7384127;19;20378;-78
2022/09/14 06:31:43;;;;;;;8.00;2.60;;;;;;;14.93;100.00;100836.09;7381966;19;20015;-77
2022/09/14 06:34:14;;;;;;;7.50;2.50;;;;;;;14.98;100.00;100836.97;7390571;19;20476;-77
2022/09/14 06:36:44;;;;;;;6.80;2.53;;;;;;;14.97;100.00;100837.84;7386783;19;20439;-76
2022/09/14 06:39:16;;;;;;;6.28;2.70;;;;;;;14.98;100.00;100831.69;7392319;19;20078;-77
2022/09/14 06:41:46;;;;;;;7.00;2.88;;;;;;;15.04;100.00;100821.06;7389013;19;20021;-76
2022/09/14 06:44:16;;;;;;;7.65;2.97;;;;;;;15.00;100.00;100819.34;7388403;19;20010;-77
2022/09/14 06:46:46;;;;;;;5.97;2.45;;;;;;;15.04;100.00;100826.38;7386620;19;20015;-77
2022/09/14 06:49:21;;;;;;;7.13;2.50;;;;;;;15.11;100.00;100830.72;7386894;19;20273;-76
2022/09/14 06:51:54;;;;;;;4.93;2.67;;;;;;;15.12;100.00;100837.75;7386969;19;20011;-77
2022/09/14 06:54:28;;;;;;;8.35;3.10;;;;;;;15.08;100.00;100830.75;7383426;19;20042;-77
2022/09/14 06:56:57;;;;;;;5.85;2.70;;;;;;;15.13;100.00;100828.97;7384524;19;20013;-77
2022/09/14 06:59:27;;;;;;;6.65;2.75;;;;;;;15.15;100.00;100827.19;7383206;19;20007;-76
2022/09/14 07:01:57;;;;;;;6.45;2.55;;;;;;;15.17;100.00;100827.19;7385373;19;20018;-78
2022/09/14 07:04:27;;;;;;;6.65;2.80;;;;;;;15.20;100.00;100833.31;7384157;19;20021;-76
2022/09/14 07:06:56;;;;;;;6.93;2.97;;;;;;;15.21;100.00;100827.16;7384893;19;20014;-77
2022/09/14 07:09:30;;;;;;;8.13;2.85;;;;;;;15.26;100.00;100820.06;7382031;19;20026;-77
2022/09/14 07:12:00;;;;;;;11.15;2.45;;;;;;;15.26;100.00;100824.47;7384104;19;20008;-77
2022/09/14 07:14:30;;;;;;;6.38;2.20;;;;;;;15.22;100.00;100820.97;7385448;19;20022;-78
2022/09/14 07:17:00;;;;;;;4.57;2.00;;;;;;;15.23;100.00;100821.84;7380265;19;20010;-77
2022/09/14 07:19:30;;;;;;;6.18;2.45;;;;;;;15.23;100.00;100825.38;7384296;19;20013;-77
2022/09/14 07:22:00;;;;;;;6.72;2.42;;;;;;;15.29;100.00;100824.47;7384290;19;20007;-77
2022/09/14 07:24:32;;;;;;;3.53;2.13;;;;;;;15.27;100.00;100821.81;7382862;19;20029;-77
2022/09/14 07:27:02;;;;;;;5.40;2.13;;;;;;;15.32;100.00;100829.72;7383151;19;20025;-77
2022/09/14 07:29:32;;;;;;;5.40;2.40;;;;;;;15.41;100.00;100812.94;7385342;19;20006;-77
2022/09/14 07:32:01;;;;;;;4.32;2.25;;;;;;;15.40;100.00;100821.75;7383245;19;20015;-77
2022/09/14 07:34:31;;;;;;;8.00;2.75;;;;;;;15.45;100.00;100826.13;7384454;19;20007;-76
2022/09/14 07:37:00;;;;;;;5.57;2.03;;;;;;;15.49;100.00;100832.25;7378553;19;20015;-76
2022/09/14 07:39:33;;;;;;;7.50;2.88;;;;;;;15.52;100.00;100835.75;7383925;19;20036;-77
2022/09/14 07:42:02;;;;;;;6.70;1.98;;;;;;;15.44;100.00;100840.22;7382266;19;20436;-77
2022/09/14 07:44:32;;;;;;;4.57;1.80;;;;;;;15.55;100.00;100826.94;7381063;19;20022;-77
2022/09/14 07:47:02;;;;;;;5.18;2.08;;;;;;;15.59;100.00;100823.41;7384206;19;20569;-77
2022/09/14 07:49:34;;;;;;;5.55;2.17;;;;;;;15.63;100.00;100825.09;7381321;19;20010;-76
2022/09/14 07:52:04;;;;;;;7.20;2.30;;;;;;;15.65;100.00;100825.97;7383480;19;20463;-78
2022/09/14 07:54:37;;;;;;;6.65;2.20;;;;;;;15.69;100.00;100825.06;7382701;19;20021;-77
2022/09/14 07:57:06;;;;;;;6.40;2.35;;;;;;;15.64;100.00;100826.88;7383161;19;20010;-77
2022/09/14 07:59:37;;;;;;;7.63;2.25;;;;;;;15.68;100.00;100823.31;7383228;19;20118;-76
2022/09/14 08:02:08;;;;;;;4.55;2.05;;;;;;;15.73;100.00;100823.28;7385369;19;20030;-77
2022/09/14 08:04:42;;;;;;;7.50;2.10;;;;;;;15.71;100.00;100818.00;7385904;19;20025;-78
2022/09/14 08:07:12;;;;;;;5.35;2.47;;;;;;;15.68;100.00;100828.59;7382666;19;20014;-77
2022/09/14 08:09:45;;;;;;;6.53;2.40;;;;;;;15.74;100.00;100823.25;7381713;19;20078;-76
2022/09/14 08:12:16;;;;;;;9.00;2.90;;;;;;;15.81;100.00;100834.66;7378923;19;20018;-76
2022/09/14 08:14:46;;;;;;;8.05;3.40;;;;;;;15.79;100.00;100816.16;7383031;19;20382;-77
2022/09/14 08:17:15;;;;;;;7.70;2.60;;;;;;;15.84;100.00;100811.72;7379301;19;20011;-76
2022/09/14 08:19:46;;;;;;;7.15;3.03;;;;;;;15.88;100.00;100813.44;7383208;19;20327;-78
2022/09/14 08:22:15;;;;;;;6.38;2.60;;;;;;;15.95;100.00;100801.91;7380434;19;20026;-77
2022/09/14 08:24:47;;;;;;;7.97;3.20;;;;;;;15.99;100.00;100798.34;7382127;19;20440;-76
2022/09/14 08:27:17;;;;;;;9.05;3.00;;;;;;;16.01;100.00;100807.16;7381232;19;20011;-77
2022/09/14 08:29:47;;;;;;;9.10;3.00;;;;;;;16.06;100.00;100814.16;7384002;19;20030;-76
2022/09/14 08:32:16;;;;;;;5.65;2.60;;;;;;;16.05;100.00;100817.69;7382463;19;20231;-77
2022/09/14 08:34:47;;;;;;;5.53;2.83;;;;;;;16.09;100.00;100808.84;7381861;19;20486;-77
2022/09/14 08:37:17;;;;;;;8.70;3.38;;;;;;;16.16;100.00;100821.13;7380358;19;20014;-77
2022/09/14 08:39:50;;;;;;;10.20;3.63;;;;;;;16.17;100.00;100817.59;7378904;19;20435;-77
2022/09/14 08:42:23;;;;;;;;;;;;;;;16.27;100.00;100812.19;7382849;19;20017;-77
2022/09/14 08:45:00;;;;;;;9.73;3.65;;;;;;;16.34;100.00;100810.34;7382542;19;19919;-76
2022/09/14 08:47:35;;;;;;;9.35;3.17;;;;;;;16.28;100.00;100800.72;7383198;19;20015;-78
2022/09/14 08:50:12;;;;;;;7.28;3.63;;;;;;;16.37;100.00;100804.16;7382574;19;20017;-76
2022/09/14 08:52:45;;;;;;;8.38;3.22;;;;;;;16.51;100.00;100807.50;7378289;19;20629;-76
2022/09/14 08:55:34;;;;;;;13.82;4.35;;;;;;;16.49;100.00;100807.53;7378575;19;20007;-76
2022/09/14 08:58:09;;;;;;;7.03;2.65;;;;;;;16.51;100.00;100808.41;7377890;19;20030;-76
2022/09/14 09:00:44;;;;;;;6.80;2.92;;;;;;;16.59;100.00;100814.47;7378371;19;20021;-76
2022/09/14 09:03:35;;;;;;;13.20;5.03;;;;;;;16.43;100.00;100810.25;7381462;19;20014;-76
2022/09/14 09:06:16;;;;;;;4.90;2.30;;;;;;;16.47;100.00;100798.72;7380691;19;20146;-76
2022/09/14 09:08:58;;;;;;;4.32;2.53;;;;;;;16.48;100.00;100803.13;7378637;19;20014;-76
2022/09/14 09:11:38;;;;;;;7.35;2.28;;;;;;;16.49;100.00;100804.88;7381453;19;20006;-76
2022/09/14 09:14:24;;;;;;;5.55;2.28;;;;;;;16.53;100.00;100806.59;7375684;19;20015;-76
2022/09/14 09:16:58;;;;;;;7.15;2.47;;;;;;;16.53;100.00;100809.25;7381861;19;20564;-76
2022/09/14 09:19:34;;;;;;;7.38;2.20;;;;;;;16.52;100.00;100815.44;7379785;19;20033;-72
2022/09/14 09:22:07;;;;;;;8.70;2.22;;;;;;;16.58;100.00;100806.56;7379192;19;20030;-77
2022/09/14 09:24:41;;;;;;;7.70;2.65;;;;;;;16.64;100.00;100804.72;7381381;19;20018;-76
2022/09/14 09:27:17;;;;;;;7.53;3.00;;;;;;;16.72;100.00;100801.09;7379939;19;20053;-73
2022/09/14 09:29:50;;;;;;;5.93;2.20;;;;;;;16.70;100.00;100806.41;7381949;19;20022;-73
2022/09/14 09:32:22;;;;;;;5.13;2.28;;;;;;;16.64;100.00;100803.78;7381729;19;20019;-74
2022/09/14 09:35:02;;;;;;;6.57;2.00;;;;;;;16.72;100.00;100806.38;7379322;19;20011;-73
2022/09/14 09:37:39;;;;;;;4.22;2.15;;;;;;;16.67;100.00;100801.16;7378035;19;20336;-72
2022/09/14 09:40:18;;;;;;;3.42;1.67;;;;;;;16.67;100.00;100802.03;7378297;19;20014;-72
2022/09/14 09:43:13;;;;;;;6.25;2.20;;;;;;;16.75;100.00;100787.81;7379811;19;20039;-72
2022/09/14 09:46:06;;;;;;;7.03;3.95;;;;;;;16.77;100.00;100793.97;7378531;19;20018;-72
2022/09/14 09:48:44;;;;;;;7.00;2.30;;;;;;;16.84;100.00;100800.94;7378444;19;20450;-73
2022/09/14 09:51:29;;;;;;;2.97;2.15;;;;;;;16.87;100.00;100787.66;7376492;19;20010;-72
2022/09/14 09:54:07;;;;;;;5.82;3.38;;;;;;;16.99;100.00;100792.78;7376871;19;20018;-72
2022/09/14 09:56:40;;;;;;;5.47;2.50;;;;;;;16.89;100.00;100793.81;7379608;19;20015;-71
2022/09/14 09:59:30;;;;;;;5.90;2.53;;;;;;;17.03;100.00;100791.84;7375307;19;20130;-72
2022/09/14 10:02:23;;;;;;;5.80;2.35;;;;;;;17.04;100.00;100790.06;7378219;19;20038;-73
2022/09/14 10:05:01;;;;;;;4.28;2.35;;;;;;;17.14;100.00;100795.22;7379876;19;20015;-72
2022/09/14 10:07:35;;;;;;;7.78;2.35;;;;;;;17.19;100.00;100798.69;7374315;19;20339;-72
2022/09/14 10:10:08;;;;;;;4.63;2.35;;;;;;;17.21;100.00;100796.00;7380487;19;20014;-73
2022/09/14 10:12:39;;;;;;;7.95;2.38;;;;;;;17.28;100.00;100803.84;7373831;19;20491;-72
2022/09/14 10:15:18;;;;;;;5.65;2.05;;;;;;;17.22;100.00;100793.34;7379721;19;20011;-74
2022/09/14 10:18:10;;;;;;;11.02;2.92;;;;;;;17.20;100.00;100789.84;7377957;19;20453;-73
2022/09/14 10:20:43;;;;;;;7.45;2.65;;;;;;;17.29;100.00;100794.13;7378810;19;20019;-74
2022/09/14 10:23:27;;;;;;;7.93;2.53;;;;;;;17.30;100.00;100794.09;7372138;19;20014;-74
2022/09/14 10:26:28;;;;;;;4.55;2.53;;;;;;;17.33;100.00;100798.47;7377996;19;20919;-73
2022/09/14 10:29:30;;;;;;;6.32;2.95;;;;;;;17.36;100.00;100797.56;7376853;19;20604;-73
2022/09/14 10:32:17;;;;;;;4.93;2.30;;;;;;;17.41;100.00;100796.59;7377140;19;20011;-74
2022/09/14 10:34:47;;;;;;;4.57;2.40;;;;;;;17.48;100.00;100789.41;7377145;19;20038;-73
2022/09/14 10:37:33;;;;;;;5.40;2.28;;;;;;;17.39;100.00;100790.44;7375579;19;20011;-73
2022/09/14 10:40:17;;;;;;;7.13;3.00;;;;;;;17.38;100.00;100787.81;7375961;19;20093;-73
2022/09/14 10:42:57;;;;;;;7.30;2.33;;;;;;;17.59;100.00;100792.78;7377583;19;20143;-73
2022/09/14 10:45:32;;;;;;;6.07;2.33;;;;;;;17.68;100.00;100784.66;7379357;19;20501;-72
2022/09/14 10:48:34;;;;;;;6.78;2.10;;;;;;;17.58;100.00;100788.38;7376491;19;20025;-74
2022/09/14 10:51:31;;;;;;;5.00;2.20;;;;;;;17.66;100.00;100786.50;7375988;19;20022;-77
2022/09/14 10:54:10;;;;;;;7.90;2.05;;;;;;;17.77;100.00;100792.47;7371812;19;20372;-77
2022/09/14 10:57:04;;;;;;;7.55;2.38;;;;;;;17.82;100.00;100780.00;7377981;19;20019;-77
2022/09/14 10:59:36;;;;;;;;;;;;;;;17.86;100.00;100792.31;7376306;19;20014;-77
2022/09/14 11:02:42;;;;;;;3.63;1.67;;;;;;;17.94;100.00;100784.22;7376978;19;19934;-77
2022/09/14 11:05:17;;;;;;;3.00;1.95;;;;;;;17.89;100.00;100779.00;7375361;19;20387;-77
2022/09/14 11:08:02;;;;;;;7.35;2.45;;;;;;;17.97;100.00;100789.47;7377311;19;20014;-77
2022/09/14 11:10:39;;;;;;;6.85;2.10;;;;;;;17.96;100.00;100782.41;7375873;19;20017;-78
2022/09/14 11:13:41;;;;;;;4.82;1.95;;;;;;;18.08;100.00;100789.28;7375146;19;20026;-79
2022/09/14 11:16:24;;;;;;;5.00;1.90;;;;;;;18.18;100.00;100782.91;7376581;19;20011;-79
2022/09/14 11:19:04;;;;;;;8.50;2.10;;;;;;;18.13;100.00;100780.31;7374952;19;20140;-79
2022/09/14 11:21:43;;;;;;;6.00;2.00;;;;;;;18.26;100.00;100778.31;7385750;19;20499;-74
2022/09/14 11:24:24;;;;;;;4.22;1.90;;;;;;;18.42;100.00;100777.13;7385620;19;20014;-72
2022/09/14 11:27:02;;;;;;;5.18;1.95;;;;;;;18.57;100.00;100784.78;7384356;19;20034;-71
2022/09/14 11:29:37;;;;;;;6.40;2.25;;;;;;;18.33;100.00;100781.72;7382456;19;20013;-73
2022/09/14 11:32:14;;;;;;;4.18;1.85;;;;;;;18.41;100.00;100778.03;7381238;19;20016;-71
2022/09/14 11:34:55;;;;;;;5.20;2.47;;;;;;;18.33;100.00;100777.28;7383174;19;20019;-72
2022/09/14 11:37:32;;;;;;;5.13;2.20;;;;;;;18.37;100.00;100778.97;7384555;19;20023;-72
2022/09/14 11:40:16;;;;;;;5.18;2.20;;;;;;;18.43;100.00;100773.56;7381613;19;20011;-72
2022/09/14 11:42:54;;;;;;;6.50;2.03;;;;;;;18.45;100.00;100782.38;7382297;19;20742;-73
2022/09/14 11:45:28;;;;;;;7.63;2.10;;;;;;;18.57;100.00;100782.13;7386392;19;20104;-72
2022/09/14 11:48:09;;;;;;;5.85;2.70;;;;;;;18.62;100.00;100774.09;7381370;19;20044;-72
2022/09/14 11:51:05;;;;;;;7.63;2.92;;;;;;;18.57;100.00;100782.13;7382975;19;20007;-72
2022/09/14 11:53:35;;;;;;;5.68;2.17;;;;;;;18.73;100.00;100777.38;7382629;19;20025;-72
2022/09/14 11:56:26;;;;;;;6.38;2.50;;;;;;;18.98;100.00;100777.72;7383371;19;20023;-73
2022/09/14 11:58:59;;;;;;;6.05;2.65;;;;;;;19.01;100.00;100782.09;7382796;19;20265;-72
2022/09/14 12:01:37;;;;;;;6.35;2.47;;;;;;;19.02;100.00;100779.38;7384789;19;20026;-73
2022/09/14 12:04:15;;;;;;;6.00;2.33;;;;;;;19.17;100.00;100771.06;7383073;19;20014;-78
2022/09/14 12:07:02;;;;;;;7.88;2.90;;;;;;;19.35;100.00;100771.56;7383257;19;20033;-78
2022/09/14 12:09:43;;;;;;;9.43;2.50;;;;;;;19.46;100.00;100772.16;7384509;19;20010;-77
2022/09/14 12:12:35;;;;;;;10.80;2.90;;;;;;;19.37;100.00;100767.94;7381625;19;20021;-77
2022/09/14 12:15:16;;;;;;;8.68;2.72;;;;;;;19.34;100.00;100781.31;7383961;19;20035;-79